createdAt,value
2023-04-14T00:02:50.847Z,22.46
2023-04-14T00:07:55.022Z,22.43
2023-04-14T00:12:57.838Z,22.41
2023-04-14T00:18:00.703Z,22.38
2023-04-14T00:23:04.897Z,22.37
2023-04-14T00:28:07.890Z,22.32
2023-04-14T00:33:10.711Z,22.30
2023-04-14T00:38:14.867Z,22.28
2023-04-14T00:43:19.474Z,22.26
2023-04-14T00:48:23.383Z,22.24
2023-04-14T00:53:28.323Z,22.17
2023-04-14T00:58:31.880Z,22.17
2023-04-14T01:03:37.229Z,22.13
2023-04-14T01:08:41.764Z,22.12
2023-04-14T01:13:55.129Z,22.06
2023-04-14T01:19:07.727Z,22.06
2023-04-14T01:24:31.665Z,22.01
2023-04-14T01:30:02.273Z,21.96
2023-04-14T01:35:14.078Z,21.98
2023-04-14T01:40:19.384Z,21.92
2023-04-14T01:45:26.411Z,21.91
2023-04-14T01:50:33.556Z,21.85
2023-04-14T01:55:39.688Z,21.85
2023-04-14T02:00:45.487Z,21.85
2023-04-14T02:05:52.542Z,21.81
2023-04-14T02:10:57.211Z,21.82
2023-04-14T02:16:01.792Z,21.77
2023-04-14T02:21:06.957Z,21.76
2023-04-14T02:26:13.996Z,21.73
2023-04-14T02:31:23.685Z,21.71
2023-04-14T02:36:35.516Z,21.66
2023-04-14T02:41:41.344Z,21.67
2023-04-14T02:46:52.697Z,21.65
2023-04-14T02:51:58.392Z,21.62
2023-04-14T02:57:02.173Z,21.61
2023-04-14T03:02:09.268Z,21.60
2023-04-14T03:07:20.358Z,21.56
2023-04-14T03:12:26.343Z,21.55
2023-04-14T03:17:30.910Z,21.54
2023-04-14T03:22:40.668Z,21.52
2023-04-14T03:27:48.180Z,21.52
2023-04-14T03:32:52.006Z,21.48
2023-04-14T03:37:59.884Z,21.47
2023-04-14T03:43:05.154Z,21.48
2023-04-14T03:48:12.842Z,21.43
2023-04-14T03:53:23.040Z,21.43
2023-04-14T03:58:27.936Z,21.43
2023-04-14T04:03:33.488Z,21.36
2023-04-14T04:08:41.517Z,21.38
2023-04-14T04:13:48.536Z,21.38
2023-04-14T04:18:51.839Z,21.36
2023-04-14T04:24:03.100Z,21.35
2023-04-14T04:29:07.505Z,21.34
2023-04-14T04:34:11.487Z,21.33
2023-04-14T04:39:17.007Z,21.29
2023-04-14T04:44:20.406Z,21.30
2023-04-14T04:49:24.251Z,21.29
2023-04-14T04:54:29.959Z,21.28
2023-04-14T04:59:33.021Z,21.27
2023-04-14T05:04:35.873Z,21.25
2023-04-14T05:09:39.995Z,21.24
2023-04-14T05:14:42.784Z,21.23
2023-04-14T05:19:45.648Z,21.21
2023-04-14T05:24:51.455Z,21.21
2023-04-14T05:29:54.429Z,21.22
2023-04-14T05:34:57.719Z,21.19
2023-04-14T05:40:02.312Z,21.17
2023-04-14T05:45:05.864Z,21.19
2023-04-14T05:50:09.495Z,21.17
2023-04-14T05:55:13.843Z,21.17
2023-04-14T06:00:17.189Z,21.17
2023-04-14T06:05:20.244Z,21.17
2023-04-14T06:10:24.458Z,21.15
2023-04-14T06:15:29.571Z,21.13
2023-04-14T06:20:32.832Z,21.14
2023-04-14T06:25:37.089Z,21.14
2023-04-14T06:30:40.014Z,21.12
2023-04-14T06:35:43.736Z,21.13
2023-04-14T06:40:48.063Z,21.12
2023-04-14T06:45:51.505Z,21.13
2023-04-14T06:50:55.708Z,21.13
2023-04-14T06:56:02.715Z,21.16
2023-04-14T07:01:05.644Z,21.16
2023-04-14T07:06:11.626Z,20.98
2023-04-14T07:11:15.893Z,19.29
2023-04-14T07:16:18.737Z,18.34
2023-04-14T07:21:21.648Z,18.21
2023-04-14T07:26:25.885Z,18.11
2023-04-14T07:31:29.262Z,18.21
2023-04-14T07:36:32.750Z,19.18
2023-04-14T07:41:37.464Z,19.67
2023-04-14T07:46:40.511Z,19.94
2023-04-14T07:51:43.842Z,20.13
2023-04-14T07:56:48.649Z,20.29
2023-04-14T08:01:51.876Z,20.41
2023-04-14T08:06:54.772Z,20.51
2023-04-14T08:11:59.379Z,20.60
2023-04-14T08:17:02.229Z,20.68
2023-04-14T08:22:05.011Z,20.75
2023-04-14T08:27:09.161Z,20.80
2023-04-14T08:32:13.254Z,20.84
2023-04-14T08:37:16.828Z,20.89
2023-04-14T08:42:22.027Z,20.92
2023-04-14T08:47:27.365Z,20.96
2023-04-14T08:52:31.838Z,21.00
2023-04-14T08:57:36.428Z,21.04
2023-04-14T09:02:41.016Z,21.06
2023-04-14T09:07:44.137Z,21.11
2023-04-14T09:12:49.755Z,21.16
2023-04-14T09:17:52.755Z,21.18
2023-04-14T09:22:55.914Z,21.21
2023-04-14T09:28:00.409Z,21.24
2023-04-14T09:33:06.369Z,21.27
2023-04-14T09:38:09.205Z,21.28
2023-04-14T09:43:26.957Z,21.32
2023-04-14T09:48:29.945Z,21.37
2023-04-14T09:53:34.018Z,21.38
2023-04-14T09:58:41.439Z,21.41
2023-04-14T10:03:46.384Z,21.44
2023-04-14T10:08:50.679Z,21.45
2023-04-14T10:13:57.007Z,21.40
2023-04-14T10:19:01.456Z,21.44
2023-04-14T10:24:04.772Z,21.51
2023-04-14T10:29:09.148Z,21.55
2023-04-14T10:34:13.637Z,21.54
2023-04-14T10:39:22.356Z,21.54
2023-04-14T10:44:28.594Z,21.61
2023-04-14T10:49:33.180Z,21.57
2023-04-14T10:54:53.754Z,21.58
2023-04-14T10:59:59.805Z,21.63
2023-04-14T11:05:05.067Z,21.64
2023-04-14T11:10:28.723Z,21.60
2023-04-14T11:15:50.753Z,21.59
2023-04-14T11:20:54.118Z,21.61
2023-04-14T11:25:57.997Z,21.58
2023-04-14T11:31:03.664Z,21.61
2023-04-14T11:36:08.086Z,21.60
2023-04-14T11:41:11.188Z,21.58
2023-04-14T11:46:15.598Z,21.62
2023-04-14T11:51:20.118Z,21.70
2023-04-14T11:56:23.121Z,21.76
2023-04-14T12:01:27.428Z,21.81
2023-04-14T12:06:36.322Z,21.88
2023-04-14T12:11:39.136Z,22.00
2023-04-14T12:16:43.610Z,22.13
2023-04-14T12:21:53.420Z,22.23
2023-04-14T12:26:57.112Z,22.27
2023-04-14T12:32:01.598Z,22.31
2023-04-14T12:37:09.656Z,22.34
2023-04-14T12:42:12.522Z,22.36
2023-04-14T12:47:28.381Z,22.40
2023-04-14T12:52:35.877Z,22.46
2023-04-14T12:57:38.693Z,22.51
2023-04-14T13:02:44.844Z,22.47
2023-04-14T13:07:49.537Z,22.50
2023-04-14T13:12:52.419Z,22.61
2023-04-14T13:17:56.670Z,22.79
2023-04-14T13:22:59.417Z,22.82
2023-04-14T13:28:02.183Z,22.33
2023-04-14T13:33:06.572Z,22.41
2023-04-14T13:38:09.572Z,22.52
2023-04-14T13:43:14.186Z,22.11
2023-04-14T13:48:18.504Z,22.71
2023-04-14T13:53:21.568Z,22.50
2023-04-14T13:58:25.395Z,22.60
2023-04-14T14:03:31.471Z,22.79
2023-04-14T14:08:37.758Z,22.79
2023-04-14T14:13:40.876Z,22.87
2023-04-14T14:18:46.461Z,22.54
2023-04-14T14:23:49.614Z,22.60
2023-04-14T14:28:52.416Z,22.94
2023-04-14T14:33:56.611Z,22.77
2023-04-14T14:38:59.486Z,22.88
2023-04-14T14:44:02.369Z,22.97
2023-04-14T14:49:06.654Z,23.09
2023-04-14T14:54:10.491Z,23.12
2023-04-14T14:59:13.562Z,23.16
2023-04-14T15:04:18.463Z,22.78
2023-04-14T15:09:21.407Z,23.23
2023-04-14T15:14:24.887Z,23.27
2023-04-14T15:19:29.207Z,23.26
2023-04-14T15:24:33.124Z,23.34
2023-04-14T15:29:36.000Z,23.22
2023-04-14T15:34:40.527Z,22.94
2023-04-14T15:39:43.363Z,23.37
2023-04-14T15:44:46.288Z,23.41
2023-04-14T15:50:09.807Z,23.52
2023-04-14T15:55:13.840Z,23.33
2023-04-14T16:00:17.097Z,23.53
2023-04-14T16:05:21.391Z,23.59
2023-04-14T16:10:24.263Z,23.64
2023-04-14T16:15:27.480Z,23.70
2023-04-14T16:20:31.792Z,23.66
2023-04-14T16:25:34.604Z,23.62
2023-04-14T16:30:37.821Z,23.35
2023-04-14T16:35:42.632Z,23.31
2023-04-14T16:40:45.550Z,23.44
2023-04-14T16:45:48.652Z,23.18
2023-04-14T16:50:54.044Z,23.02
2023-04-14T16:56:03.367Z,23.21
2023-04-14T17:01:07.455Z,23.27
2023-04-14T17:06:11.719Z,23.38
2023-04-14T17:11:15.169Z,23.61
2023-04-14T17:16:17.945Z,23.41
2023-04-14T17:21:22.223Z,23.46
2023-04-14T17:26:24.976Z,23.55
2023-04-14T17:31:28.001Z,23.62
2023-04-14T17:36:32.189Z,23.52
2023-04-14T17:41:34.990Z,23.48
2023-04-14T17:46:38.383Z,23.49
2023-04-14T17:51:42.603Z,23.39
2023-04-14T17:56:45.416Z,23.43
2023-04-14T18:01:48.349Z,23.49
2023-04-14T18:06:52.692Z,23.53
2023-04-14T18:11:56.249Z,23.56
2023-04-14T18:29:21.238Z,23.65
2023-04-14T18:34:24.151Z,23.60
2023-04-14T18:39:28.662Z,23.57
2023-04-14T18:44:31.530Z,23.59
2023-04-14T18:49:34.481Z,23.63
2023-04-14T18:54:38.885Z,23.61
2023-04-14T18:59:41.857Z,23.52
2023-04-14T19:04:44.767Z,23.59
2023-04-14T19:09:49.102Z,23.60
2023-04-14T19:14:51.846Z,23.58
2023-04-14T19:19:54.849Z,23.57
2023-04-14T19:24:59.177Z,23.39
2023-04-14T19:30:01.945Z,23.56
2023-04-14T19:35:06.458Z,23.49
2023-04-14T19:40:11.436Z,23.54
2023-04-14T19:45:14.231Z,23.53
2023-04-14T19:50:17.118Z,23.51
2023-04-14T19:55:21.286Z,23.49
2023-04-14T20:00:24.821Z,23.48
2023-04-14T20:05:27.631Z,23.54
2023-04-14T20:10:31.799Z,23.50
2023-04-14T20:15:34.788Z,23.52
2023-04-14T20:20:40.178Z,23.50
2023-04-14T20:25:45.410Z,23.57
2023-04-14T20:30:50.908Z,23.54
2023-04-14T20:35:54.185Z,23.54
2023-04-14T20:40:59.077Z,23.52
2023-04-14T20:46:02.483Z,23.49
2023-04-14T20:51:05.585Z,23.51
2023-04-14T20:56:09.957Z,23.52
2023-04-14T21:01:12.780Z,23.54
2023-04-14T21:06:16.110Z,23.32
2023-04-14T21:11:20.342Z,23.54
2023-04-14T21:16:23.319Z,23.58
2023-04-14T21:21:26.220Z,23.65
2023-04-14T21:26:30.397Z,23.65
2023-04-14T21:31:33.560Z,23.70
2023-04-14T21:36:36.871Z,23.74
2023-04-14T21:41:41.399Z,23.79
2023-04-14T21:46:44.346Z,23.84
2023-04-14T21:51:47.478Z,23.87
2023-04-14T21:56:51.851Z,23.88
2023-04-14T22:01:54.662Z,23.91
2023-04-14T22:06:57.471Z,23.94
2023-04-14T22:12:01.949Z,23.96
2023-04-14T22:17:04.864Z,24.02
2023-04-14T22:22:07.676Z,24.05
2023-04-14T22:27:11.843Z,24.05
2023-04-14T22:32:14.608Z,23.99
2023-04-14T22:37:17.458Z,24.08
2023-04-14T22:42:21.870Z,24.08
2023-04-14T22:47:24.647Z,24.04
2023-04-14T22:52:27.835Z,24.09
2023-04-14T22:57:33.110Z,23.88
2023-04-14T23:02:36.681Z,24.25
2023-04-14T23:07:39.850Z,24.15
2023-04-14T23:12:43.938Z,24.25
2023-04-14T23:17:46.991Z,24.27
2023-04-14T23:22:49.774Z,24.23
2023-04-14T23:27:53.961Z,24.24
2023-04-14T23:32:56.935Z,24.25
2023-04-14T23:38:02.333Z,24.26
2023-04-14T23:43:06.552Z,24.26
2023-04-14T23:48:09.445Z,24.22
2023-04-14T23:53:12.313Z,24.22
2023-04-14T23:58:26.143Z,24.18
